createdAt,value
2019-04-21T00:00:55.441Z,101715.52
2019-04-21T00:03:23.040Z,101718.11
2019-04-21T00:06:06.077Z,101709.47
2019-04-21T00:08:37.529Z,101706.41
2019-04-21T00:11:09.479Z,101709.41
2019-04-21T00:13:29.031Z,101709.81
2019-04-21T00:15:53.455Z,101714.91
2019-04-21T00:18:40.901Z,101715.66
2019-04-21T00:21:12.213Z,101716.36
2019-04-21T00:23:49.934Z,101711.17
2019-04-21T00:26:22.640Z,101711.72
2019-04-21T00:28:59.438Z,101711.66
2019-04-21T00:31:19.311Z,101713.39
2019-04-21T00:33:37.308Z,101711.21
2019-04-21T00:36:10.787Z,101709.47
2019-04-21T00:39:09.933Z,101703.36
2019-04-21T00:41:26.101Z,101705.92
2019-04-21T00:43:49.094Z,101707.23
2019-04-21T00:46:19.004Z,101709.38
2019-04-21T00:48:53.536Z,101706.73
2019-04-21T00:51:36.084Z,101701.56
2019-04-21T00:54:04.012Z,101696.28
2019-04-21T00:56:34.122Z,101696.13
2019-04-21T00:58:59.856Z,101693.34
2019-04-21T01:01:31.264Z,101697.20
2019-04-21T01:04:03.918Z,101692.19
2019-04-21T01:06:38.228Z,101700.05
2019-04-21T01:08:59.056Z,101693.70
2019-04-21T01:11:33.280Z,101693.38
2019-04-21T01:14:05.806Z,101687.55
2019-04-21T01:16:33.459Z,101682.77
2019-04-21T01:19:01.935Z,101686.47
2019-04-21T01:21:14.194Z,101679.05
2019-04-21T01:23:42.380Z,101677.73
2019-04-21T01:26:22.679Z,101678.75
2019-04-21T01:29:00.070Z,101681.77
2019-04-21T01:31:30.575Z,101682.70
2019-04-21T01:34:02.854Z,101690.87
2019-04-21T01:36:33.370Z,101682.79
2019-04-21T01:39:05.344Z,101682.05
2019-04-21T01:41:35.106Z,101683.06
2019-04-21T01:44:01.507Z,101675.74
2019-04-21T01:46:30.907Z,101671.98
2019-04-21T01:48:59.306Z,101667.61
2019-04-21T01:51:29.578Z,101676.36
2019-04-21T01:54:12.613Z,101668.96
2019-04-21T01:56:40.255Z,101670.78
2019-04-21T01:59:00.858Z,101671.89
2019-04-21T02:01:39.093Z,101671.19
2019-04-21T02:04:13.992Z,101670.87
2019-04-21T02:06:39.217Z,101667.37
2019-04-21T02:09:13.062Z,101662.23
2019-04-21T02:11:43.349Z,101664.52
2019-04-21T02:14:19.693Z,101665.01
2019-04-21T02:16:43.669Z,101667.02
2019-04-21T02:19:04.466Z,101662.67
2019-04-21T02:21:39.275Z,101657.75
2019-04-21T02:24:23.881Z,101656.52
2019-04-21T02:26:45.787Z,101652.95
2019-04-21T02:29:15.542Z,101646.53
2019-04-21T02:32:00.326Z,101644.70
2019-04-21T02:34:23.869Z,101644.08
2019-04-21T02:37:06.535Z,101643.69
2019-04-21T02:39:29.631Z,101639.78
2019-04-21T02:41:54.668Z,101642.94
2019-04-21T02:44:26.462Z,101642.93
2019-04-21T02:46:50.606Z,101644.38
2019-04-21T02:49:38.146Z,101643.18
2019-04-21T02:59:33.384Z,101633.00
2019-04-21T03:09:44.390Z,101620.83
2019-04-21T03:12:20.206Z,101622.66
2019-04-21T03:19:55.502Z,101607.09
2019-04-21T03:22:20.981Z,101614.95
2019-04-21T03:27:31.110Z,101602.56
2019-04-21T03:29:55.507Z,101603.21
2019-04-21T03:32:50.657Z,101594.23
2019-04-21T03:37:29.087Z,101587.38
2019-04-21T03:50:05.250Z,101587.84
2019-04-21T03:55:41.413Z,101585.52
2019-04-21T03:58:05.099Z,101586.28
2019-04-21T04:00:40.080Z,101580.78
2019-04-21T04:03:39.520Z,101586.15
2019-04-21T04:11:04.626Z,101579.39
2019-04-21T04:13:26.559Z,101581.47
2019-04-21T04:15:59.818Z,101576.00
2019-04-21T04:18:44.574Z,101575.80
2019-04-21T04:20:54.943Z,101570.22
2019-04-21T04:23:31.028Z,101572.47
2019-04-21T04:25:59.144Z,101575.13
2019-04-21T04:28:27.824Z,101573.70
2019-04-21T04:31:05.082Z,101576.30
2019-04-21T04:33:46.091Z,101576.48
2019-04-21T04:38:34.402Z,101567.03
2019-04-21T04:41:24.461Z,101570.19
2019-04-21T04:43:39.515Z,101566.08
2019-04-21T04:48:35.359Z,101554.31
2019-04-21T04:51:18.156Z,101556.66
2019-04-21T04:53:47.030Z,101544.48
2019-04-21T04:56:11.679Z,101549.33
2019-04-21T04:59:09.896Z,101547.53
2019-04-21T05:01:24.638Z,101551.58
2019-04-21T05:09:02.884Z,101540.55
2019-04-21T05:14:02.879Z,101541.23
2019-04-21T05:16:41.046Z,101538.08
2019-04-21T05:19:06.396Z,101543.23
2019-04-21T05:23:49.856Z,101539.95
2019-04-21T05:26:13.770Z,101541.34
2019-04-21T05:28:42.039Z,101543.41
2019-04-21T05:31:32.322Z,101538.36
2019-04-21T05:34:03.112Z,101540.36
2019-04-21T05:36:40.768Z,101543.06
2019-04-21T05:39:12.016Z,101536.89
2019-04-21T05:41:31.443Z,101543.11
2019-04-21T05:44:12.836Z,101533.83
2019-04-21T05:46:53.401Z,101536.67
2019-04-21T05:49:22.200Z,101534.05
2019-04-21T05:51:55.982Z,101530.81
2019-04-21T05:54:39.693Z,101529.15
2019-04-21T05:57:03.796Z,101530.62
2019-04-21T05:59:35.772Z,101530.42
2019-04-21T06:02:16.560Z,101528.08
2019-04-21T06:04:51.792Z,101524.11
2019-04-21T06:07:13.507Z,101524.87
2019-04-21T06:09:39.565Z,101521.61
2019-04-21T06:12:05.890Z,101522.67
2019-04-21T06:14:42.207Z,101521.92
2019-04-21T06:17:08.086Z,101525.06
2019-04-21T06:19:43.219Z,101520.48
2019-04-21T06:22:06.061Z,101518.88
2019-04-21T06:24:42.229Z,101517.76
2019-04-21T06:27:10.765Z,101518.25
2019-04-21T06:29:39.362Z,101517.06
2019-04-21T06:34:54.603Z,101510.90
2019-04-21T06:37:34.746Z,101512.67
2019-04-21T06:40:03.281Z,101507.64
2019-04-21T06:42:09.095Z,101509.86
2019-04-21T06:44:48.360Z,101514.66
2019-04-21T06:47:24.658Z,101512.19
2019-04-21T06:49:45.667Z,101510.56
2019-04-21T06:52:29.897Z,101520.06
2019-04-21T06:54:46.893Z,101510.75
2019-04-21T06:57:18.193Z,101515.10
2019-04-21T06:59:38.684Z,101510.05
2019-04-21T07:02:30.647Z,101503.73
2019-04-21T07:04:51.730Z,101501.64
2019-04-21T07:07:14.401Z,101500.87
2019-04-21T07:09:53.093Z,101501.40
2019-04-21T07:12:13.766Z,101504.46
2019-04-21T07:14:49.455Z,101499.38
2019-04-21T07:17:17.878Z,101497.75
2019-04-21T07:19:51.066Z,101499.96
2019-04-21T07:22:20.333Z,101085.82
2019-04-21T07:24:47.918Z,101492.38
2019-04-21T07:27:22.194Z,101505.77
2019-04-21T07:29:55.030Z,101498.84
2019-04-21T07:32:15.240Z,101494.58
2019-04-21T07:34:51.583Z,101497.22
2019-04-21T07:37:20.904Z,101495.59
2019-04-21T07:39:48.175Z,101488.73
2019-04-21T07:42:14.710Z,101492.22
2019-04-21T07:44:41.872Z,101485.02
2019-04-21T07:47:20.218Z,101481.15
2019-04-21T07:49:57.477Z,101482.52
2019-04-21T07:52:34.970Z,101472.06
2019-04-21T07:55:14.224Z,101470.45
2019-04-21T07:57:23.441Z,101467.66
2019-04-21T08:02:29.326Z,101469.47
2019-04-21T08:05:10.271Z,101463.38
2019-04-21T08:07:41.834Z,101469.11
2019-04-21T08:09:57.101Z,101465.78
2019-04-21T08:12:24.621Z,101461.52
2019-04-21T08:15:13.937Z,101460.22
2019-04-21T08:17:30.749Z,101459.33
2019-04-21T08:19:59.060Z,101462.33
2019-04-21T08:22:38.193Z,101450.29
2019-04-21T08:25:04.421Z,101452.91
2019-04-21T08:27:36.759Z,101453.77
2019-04-21T08:29:58.279Z,101456.31
2019-04-21T08:32:44.426Z,101447.74
2019-04-21T08:35:22.798Z,101449.08
2019-04-21T08:37:30.711Z,101445.23
2019-04-21T08:42:35.214Z,101439.60
2019-04-21T08:45:07.659Z,101436.61
2019-04-21T08:47:33.704Z,101431.00
2019-04-21T08:50:03.517Z,101427.52
2019-04-21T08:55:29.751Z,101425.79
2019-04-21T08:58:08.440Z,101419.75
2019-04-21T09:00:38.848Z,101418.43
2019-04-21T09:03:14.646Z,101417.02
2019-04-21T09:05:45.495Z,101410.97
2019-04-21T09:08:15.299Z,101413.66
2019-04-21T09:10:39.722Z,101406.39
2019-04-21T09:13:10.225Z,101403.77
2019-04-21T09:15:42.953Z,101404.66
2019-04-21T09:18:08.499Z,101392.54
2019-04-21T09:20:49.728Z,101389.47
2019-04-21T09:23:13.557Z,101392.84
2019-04-21T09:25:46.767Z,101389.80
2019-04-21T09:28:14.624Z,101388.51
2019-04-21T09:30:26.362Z,101393.32
2019-04-21T09:32:58.174Z,101388.66
2019-04-21T09:35:25.036Z,101384.84
2019-04-21T09:37:59.993Z,101386.53
2019-04-21T09:40:30.114Z,101386.91
2019-04-21T09:43:01.065Z,101375.16
2019-04-21T09:45:24.459Z,101373.81
2019-04-21T09:48:01.030Z,101367.84
2019-04-21T09:50:24.277Z,101367.34
2019-04-21T09:52:58.105Z,101361.27
2019-04-21T09:55:30.270Z,101361.59
2019-04-21T09:57:57.706Z,101357.36
2019-04-21T10:00:27.275Z,101353.02
2019-04-21T10:03:01.764Z,101348.06
2019-04-21T10:05:25.187Z,101338.52
2019-04-21T10:07:55.251Z,101337.78
2019-04-21T10:10:25.176Z,101334.38
2019-04-21T10:12:54.031Z,101335.23
2019-04-21T10:15:24.607Z,101333.36
2019-04-21T10:17:54.342Z,101321.26
2019-04-21T10:20:24.399Z,101316.44
2019-04-21T10:22:53.190Z,101314.23
2019-04-21T10:25:22.822Z,101307.78
2019-04-21T10:27:51.239Z,101299.28
2019-04-21T10:30:22.528Z,101294.80
2019-04-21T10:32:52.364Z,101297.13
2019-04-21T10:35:21.856Z,101294.22
2019-04-21T10:38:05.783Z,101289.91
2019-04-21T10:40:21.402Z,101289.08
2019-04-21T10:42:50.113Z,101288.95
2019-04-21T10:45:19.073Z,101288.25
2019-04-21T10:47:47.514Z,101284.73
2019-04-21T10:50:16.385Z,100957.84
2019-04-21T10:53:04.919Z,101269.95
2019-04-21T10:55:50.565Z,101267.09
2019-04-21T10:58:11.082Z,101263.19
2019-04-21T11:00:42.100Z,101255.84
2019-04-21T11:03:31.056Z,101258.91
2019-04-21T11:06:04.009Z,101258.84
2019-04-21T11:08:37.674Z,101250.95
2019-04-21T11:11:03.775Z,101247.33
2019-04-21T11:13:32.653Z,101251.49
2019-04-21T11:16:01.405Z,101242.52
2019-04-21T11:18:30.047Z,101242.05
2019-04-21T11:21:00.737Z,101248.05
2019-04-21T11:23:29.267Z,101243.56
2019-04-21T11:25:58.095Z,101242.87
2019-04-21T11:28:27.239Z,101239.28
2019-04-21T11:30:57.208Z,101240.36
2019-04-21T11:33:27.139Z,101231.09
2019-04-21T11:35:55.790Z,101224.80
2019-04-21T11:38:29.154Z,101224.13
2019-04-21T11:40:56.084Z,101216.25
2019-04-21T11:43:24.463Z,101219.89
2019-04-21T11:45:52.955Z,101216.73
2019-04-21T11:48:30.280Z,101202.45
2019-04-21T11:50:59.265Z,101204.88
2019-04-21T11:53:28.737Z,101202.31
2019-04-21T11:55:58.598Z,101187.95
2019-04-21T11:58:27.851Z,101185.45
2019-04-21T12:01:03.835Z,101185.44
2019-04-21T12:03:33.529Z,101184.07
2019-04-21T12:06:03.583Z,101180.12
2019-04-21T12:08:40.185Z,101177.50
2019-04-21T12:11:03.295Z,101163.31
2019-04-21T12:13:32.249Z,101164.79
2019-04-21T12:16:01.112Z,101162.02
2019-04-21T12:18:30.520Z,101161.21
2019-04-21T12:20:59.635Z,101153.16
2019-04-21T12:23:30.204Z,101153.67
2019-04-21T12:25:59.156Z,101153.91
2019-04-21T12:28:28.070Z,101144.88
2019-04-21T12:30:57.774Z,101139.81
2019-04-21T12:33:47.710Z,101141.84
2019-04-21T12:36:17.745Z,101142.27
2019-04-21T12:38:50.941Z,101133.88
2019-04-21T12:41:16.587Z,101121.98
2019-04-21T12:43:45.023Z,101119.64
2019-04-21T12:46:13.988Z,101124.20
2019-04-21T12:48:42.493Z,101110.95
2019-04-21T12:51:12.247Z,101116.52
2019-04-21T12:53:41.615Z,101111.34
2019-04-21T12:56:11.594Z,101103.73
2019-04-21T12:58:41.425Z,101108.34
2019-04-21T13:01:10.256Z,101101.39
2019-04-21T13:03:39.727Z,101095.45
2019-04-21T13:06:09.783Z,101085.48
2019-04-21T13:08:45.670Z,101077.91
2019-04-21T13:11:09.546Z,101076.21
2019-04-21T13:13:39.876Z,101069.17
2019-04-21T13:16:09.582Z,101063.59
2019-04-21T13:18:39.471Z,101056.88
2019-04-21T13:21:08.069Z,101057.06
2019-04-21T13:23:36.981Z,101055.31
2019-04-21T13:26:06.523Z,101043.39
2019-04-21T13:28:35.831Z,101045.64
2019-04-21T13:31:04.542Z,101039.91
2019-04-21T13:33:33.381Z,101038.53
2019-04-21T13:36:04.820Z,101033.72
2019-04-21T13:38:42.188Z,101027.44
2019-04-21T13:41:23.077Z,101022.77
2019-04-21T13:43:37.115Z,101020.53
2019-04-21T13:46:05.949Z,101016.59
2019-04-21T13:48:34.758Z,101017.38
2019-04-21T13:51:04.907Z,101013.44
2019-04-21T13:53:34.951Z,101005.77
2019-04-21T13:56:04.721Z,101003.60
2019-04-21T13:58:34.488Z,100995.36
2019-04-21T14:01:03.560Z,101001.55
2019-04-21T14:03:33.308Z,100995.52
2019-04-21T14:06:02.543Z,100985.72
2019-04-21T14:08:31.329Z,100977.77
2019-04-21T14:10:59.875Z,100979.84
2019-04-21T14:13:28.283Z,100973.41
2019-04-21T14:15:57.849Z,100968.16
2019-04-21T14:18:26.883Z,100966.77
2019-04-21T14:20:55.627Z,100964.80
2019-04-21T14:23:32.578Z,100962.71
2019-04-21T14:25:55.474Z,100958.66
2019-04-21T14:28:24.186Z,100955.43
2019-04-21T14:30:52.687Z,100957.55
2019-04-21T14:33:23.491Z,100955.01
2019-04-21T14:35:52.622Z,100951.87
2019-04-21T14:38:22.479Z,100951.14
2019-04-21T14:40:52.434Z,100948.48
2019-04-21T14:43:21.687Z,100944.16
2019-04-21T14:45:52.814Z,100940.77
2019-04-21T14:48:23.271Z,100931.86
2019-04-21T14:51:06.574Z,100932.44
2019-04-21T14:53:56.318Z,100931.42
2019-04-21T14:56:27.003Z,100927.48
2019-04-21T14:58:57.653Z,100922.73
2019-04-21T15:01:26.187Z,100924.36
2019-04-21T15:03:55.470Z,100920.27
2019-04-21T15:06:25.338Z,100915.26
2019-04-21T15:08:55.421Z,100913.88
2019-04-21T15:11:24.258Z,100912.86
2019-04-21T15:13:53.633Z,100910.92
2019-04-21T15:16:22.836Z,100906.53
2019-04-21T15:18:52.687Z,100898.81
2019-04-21T15:21:21.656Z,100892.75
2019-04-21T15:23:50.707Z,100897.23
2019-04-21T15:26:20.050Z,100896.88
2019-04-21T15:28:48.953Z,100899.81
2019-04-21T15:31:23.896Z,100894.16
2019-04-21T15:33:47.538Z,100895.16
2019-04-21T15:36:16.684Z,100894.84
2019-04-21T15:38:45.816Z,100878.34
2019-04-21T15:41:14.525Z,100891.69
2019-04-21T15:43:43.072Z,100883.38
2019-04-21T15:46:12.895Z,100873.58
2019-04-21T15:48:41.643Z,100875.73
2019-04-21T15:51:11.062Z,100871.80
2019-04-21T15:53:41.809Z,100870.10
2019-04-21T15:56:31.060Z,100862.64
2019-04-21T15:59:04.360Z,100868.05
2019-04-21T16:01:37.000Z,100858.58
2019-04-21T16:04:06.563Z,100868.27
2019-04-21T16:06:35.636Z,100864.19
2019-04-21T16:09:08.389Z,100859.09
2019-04-21T16:11:37.894Z,100850.77
2019-04-21T16:14:08.021Z,100851.89
2019-04-21T16:16:36.580Z,100849.91
2019-04-21T16:19:06.155Z,100851.75
2019-04-21T16:21:38.321Z,100848.54
2019-04-21T16:24:06.626Z,100844.50
2019-04-21T16:26:35.281Z,100845.73
2019-04-21T16:29:04.926Z,100840.49
2019-04-21T16:31:34.281Z,100838.67
2019-04-21T16:34:03.234Z,100836.05
2019-04-21T16:36:31.888Z,100834.02
2019-04-21T16:39:01.748Z,100834.58
2019-04-21T16:41:30.299Z,100835.03
2019-04-21T16:43:58.988Z,100830.70
2019-04-21T16:46:27.533Z,100828.00
2019-04-21T16:48:55.994Z,100820.14
2019-04-21T16:51:24.479Z,100822.23
2019-04-21T16:53:55.717Z,100825.31
2019-04-21T16:56:26.924Z,100822.08
2019-04-21T16:59:00.883Z,100814.45
2019-04-21T17:01:31.796Z,100813.59
2019-04-21T17:04:00.388Z,100811.62
2019-04-21T17:06:29.190Z,100805.52
2019-04-21T17:08:59.002Z,100807.59
2019-04-21T17:11:33.138Z,100797.97
2019-04-21T17:13:58.222Z,100800.90
2019-04-21T17:16:50.821Z,100799.81
2019-04-21T17:19:06.584Z,100802.42
2019-04-21T17:21:28.062Z,100799.28
2019-04-21T17:23:56.908Z,100792.87
2019-04-21T17:26:26.793Z,100796.56
2019-04-21T17:28:56.598Z,100793.34
2019-04-21T17:31:26.535Z,100791.33
2019-04-21T17:34:04.985Z,100789.08
2019-04-21T17:36:25.576Z,100784.66
2019-04-21T17:38:55.609Z,100784.72
2019-04-21T17:41:31.838Z,100784.03
2019-04-21T17:43:56.041Z,100782.61
2019-04-21T17:46:33.340Z,100780.17
2019-04-21T17:48:54.949Z,100782.84
2019-04-21T17:51:35.189Z,100778.78
2019-04-21T17:54:16.493Z,100781.37
2019-04-21T17:57:18.360Z,100778.56
2019-04-21T17:59:41.173Z,100779.66
2019-04-21T18:01:59.274Z,100778.97
2019-04-21T18:04:30.639Z,100781.56
2019-04-21T18:07:02.104Z,100778.56
2019-04-21T18:09:44.162Z,100780.20
2019-04-21T18:12:08.057Z,100789.59
2019-04-21T18:14:22.076Z,100785.13
2019-04-21T18:16:51.643Z,100788.06
2019-04-21T18:19:26.099Z,100783.11
2019-04-21T18:22:07.669Z,100789.09
2019-04-21T18:24:47.997Z,100790.78
2019-04-21T18:27:09.700Z,100791.59
2019-04-21T18:29:40.068Z,100792.30
2019-04-21T18:32:08.633Z,100793.08
2019-04-21T18:34:49.881Z,100792.84
2019-04-21T18:37:35.012Z,100791.33
2019-04-21T18:40:06.811Z,100788.11
2019-04-21T18:42:55.543Z,100792.77
2019-04-21T18:48:10.909Z,100790.56
2019-04-21T18:50:48.854Z,100788.58
2019-04-21T18:53:44.214Z,100790.94
2019-04-21T18:56:00.341Z,100792.39
2019-04-21T18:58:24.290Z,100788.80
2019-04-21T19:00:56.917Z,100788.17
2019-04-21T19:03:35.164Z,100790.72
2019-04-21T19:06:03.957Z,100789.31
2019-04-21T19:08:46.570Z,100787.84
2019-04-21T19:11:22.286Z,100786.70
2019-04-21T19:14:12.706Z,100791.94
2019-04-21T19:19:23.023Z,100785.32
2019-04-21T19:21:31.086Z,100791.28
2019-04-21T19:24:15.650Z,100795.67
2019-04-21T19:26:39.820Z,100798.77
2019-04-21T19:29:16.629Z,100793.98
2019-04-21T19:31:39.949Z,100790.66
2019-04-21T19:33:55.797Z,100787.75
2019-04-21T19:36:17.333Z,100786.08
2019-04-21T19:38:58.221Z,100785.53
2019-04-21T19:41:31.911Z,100777.95
2019-04-21T19:44:10.844Z,100782.66
2019-04-21T19:46:33.138Z,100787.13
2019-04-21T19:49:13.761Z,100782.58
2019-04-21T19:51:33.017Z,100784.41
2019-04-21T19:53:56.095Z,100785.38
2019-04-21T19:56:18.571Z,100781.52
2019-04-21T19:58:47.870Z,100777.77
2019-04-21T20:01:17.493Z,100782.03
2019-04-21T20:03:49.855Z,100775.78
2019-04-21T20:06:33.146Z,100770.27
2019-04-21T20:09:04.113Z,100768.63
2019-04-21T20:11:36.105Z,100766.97
2019-04-21T20:14:32.615Z,100767.74
2019-04-21T20:16:38.983Z,100771.70
2019-04-21T20:18:55.329Z,100768.84
2019-04-21T20:21:17.260Z,100760.72
2019-04-21T20:23:46.645Z,100759.80
2019-04-21T20:26:17.049Z,100758.55
2019-04-21T20:28:57.112Z,100755.47
2019-04-21T20:31:29.240Z,100764.90
2019-04-21T20:34:28.281Z,100750.80
2019-04-21T20:36:56.725Z,100756.92
2019-04-21T20:39:16.652Z,100753.73
2019-04-21T20:41:46.771Z,100758.30
2019-04-21T20:44:28.156Z,100753.97
2019-04-21T20:46:55.515Z,100758.78
2019-04-21T20:49:19.051Z,100755.17
2019-04-21T20:52:08.115Z,100750.25
2019-04-21T20:54:27.120Z,100755.64
2019-04-21T20:56:58.410Z,100749.47
2019-04-21T20:59:25.117Z,100750.24
2019-04-21T21:01:59.316Z,100749.55
2019-04-21T21:04:21.799Z,100748.39
2019-04-21T21:07:04.531Z,100747.93
2019-04-21T21:09:27.163Z,100742.56
2019-04-21T21:12:13.429Z,100735.95
2019-04-21T21:14:29.276Z,100736.13
2019-04-21T21:17:26.645Z,100731.69
2019-04-21T21:19:38.104Z,100730.68
2019-04-21T21:21:56.671Z,100731.05
2019-04-21T21:24:39.332Z,100731.83
2019-04-21T21:27:04.064Z,100728.52
2019-04-21T21:29:31.584Z,100734.55
2019-04-21T21:32:12.863Z,100729.27
2019-04-21T21:34:38.823Z,100730.68
2019-04-21T21:37:01.806Z,100727.67
2019-04-21T21:39:36.221Z,100724.19
2019-04-21T21:41:48.503Z,100730.23
2019-04-21T21:44:18.292Z,100723.25
2019-04-21T21:46:58.921Z,100729.40
2019-04-21T21:49:29.428Z,100716.70
2019-04-21T21:51:56.936Z,100718.14
2019-04-21T21:54:13.972Z,100713.92
2019-04-21T21:56:42.667Z,100717.38
2019-04-21T21:59:16.437Z,100718.53
2019-04-21T22:01:47.001Z,100711.99
2019-04-21T22:04:18.899Z,100711.54
2019-04-21T22:06:52.961Z,100713.41
2019-04-21T22:09:14.567Z,100710.50
2019-04-21T22:11:44.367Z,100713.11
2019-04-21T22:14:22.913Z,100712.31
2019-04-21T22:16:57.520Z,100709.70
2019-04-21T22:19:34.036Z,100713.12
2019-04-21T22:21:59.476Z,100713.55
2019-04-21T22:24:29.302Z,100716.13
2019-04-21T22:26:44.934Z,100721.69
2019-04-21T22:29:13.909Z,100711.85
2019-04-21T22:31:44.580Z,100712.33
2019-04-21T22:34:15.801Z,100716.77
2019-04-21T22:36:53.834Z,100716.05
2019-04-21T22:39:28.254Z,100719.54
2019-04-21T22:41:46.613Z,100724.07
2019-04-21T22:44:16.504Z,100721.06
2019-04-21T22:46:54.887Z,100727.12
2019-04-21T22:49:16.947Z,100722.05
2019-04-21T22:51:49.686Z,100722.08
2019-04-21T22:54:20.835Z,100711.36
2019-04-21T22:56:56.533Z,100708.47
2019-04-21T22:59:21.016Z,100714.06
2019-04-21T23:01:48.831Z,100705.44
2019-04-21T23:04:17.773Z,100703.38
2019-04-21T23:06:48.816Z,100701.67
2019-04-21T23:09:16.965Z,100701.66
2019-04-21T23:11:50.551Z,100702.14
2019-04-21T23:14:17.481Z,100703.05
2019-04-21T23:16:49.065Z,100694.91
2019-04-21T23:19:32.130Z,100698.34
2019-04-21T23:22:04.256Z,100699.27
2019-04-21T23:24:40.111Z,100695.88
2019-04-21T23:26:59.768Z,100691.98
2019-04-21T23:29:48.332Z,100692.04
2019-04-21T23:32:03.014Z,100689.44
2019-04-21T23:34:25.089Z,100683.89
2019-04-21T23:36:59.050Z,100683.05
2019-04-21T23:39:23.733Z,100675.31
2019-04-21T23:41:52.868Z,100678.33
2019-04-21T23:44:20.231Z,100673.16
2019-04-21T23:46:54.875Z,100670.17
2019-04-21T23:49:34.582Z,100668.45
2019-04-21T23:51:58.381Z,100668.52
2019-04-21T23:54:19.565Z,100665.92
2019-04-21T23:56:49.257Z,100659.45
2019-04-21T23:59:18.126Z,100662.02
